sensor_id;sensor_type;location;lat;lon;timestamp;pressure;altitude;pressure_sealevel;temperature;humidity
49194;BME280;35029;50.804;12.866;2022-08-21T00:01:31;97708.34;;;17.30;100.00
49194;BME280;35029;50.804;12.866;2022-08-21T00:03:56;97704.75;;;17.24;100.00
49194;BME280;35029;50.804;12.866;2022-08-21T00:06:23;97707.63;;;17.34;100.00
49194;BME280;35029;50.804;12.866;2022-08-21T00:08:51;97714.03;;;17.33;100.00
49194;BME280;35029;50.804;12.866;2022-08-21T00:11:18;97705.41;;;17.31;100.00
49194;BME280;35029;50.804;12.866;2022-08-21T00:13:43;97670.56;;;17.14;100.00
49194;BME280;35029;50.804;12.866;2022-08-21T00:16:09;97703.81;;;17.30;100.00
49194;BME280;35029;50.804;12.866;2022-08-21T00:18:36;97707.63;;;17.34;100.00
49194;BME280;35029;50.804;12.866;2022-08-21T00:21:01;97699.50;;;17.29;100.00
49194;BME280;35029;50.804;12.866;2022-08-21T00:23:27;97706.56;;;17.35;100.00
49194;BME280;35029;50.804;12.866;2022-08-21T00:25:52;97706.34;;;17.37;100.00
49194;BME280;35029;50.804;12.866;2022-08-21T00:28:18;97707.72;;;17.39;100.00
49194;BME280;35029;50.804;12.866;2022-08-21T00:30:44;97705.03;;;17.39;100.00
49194;BME280;35029;50.804;12.866;2022-08-21T00:33:10;97705.03;;;17.39;100.00
49194;BME280;35029;50.804;12.866;2022-08-21T00:35:38;97703.44;;;17.38;100.00
49194;BME280;35029;50.804;12.866;2022-08-21T00:38:06;97697.13;;;17.33;100.00
49194;BME280;35029;50.804;12.866;2022-08-21T00:40:38;97700.16;;;17.36;100.00
49194;BME280;35029;50.804;12.866;2022-08-21T00:43:07;97702.84;;;17.36;100.00
49194;BME280;35029;50.804;12.866;2022-08-21T00:45:33;97703.88;;;17.35;100.00
49194;BME280;35029;50.804;12.866;2022-08-21T00:47:59;97698.78;;;17.34;100.00
49194;BME280;35029;50.804;12.866;2022-08-21T00:50:28;97704.28;;;17.27;100.00
49194;BME280;35029;50.804;12.866;2022-08-21T00:52:55;97693.78;;;17.26;100.00
49194;BME280;35029;50.804;12.866;2022-08-21T00:55:21;97684.63;;;17.21;100.00
49194;BME280;35029;50.804;12.866;2022-08-21T00:57:51;97697.63;;;17.30;100.00
49194;BME280;35029;50.804;12.866;2022-08-21T01:00:27;97688.44;;;17.26;100.00
49194;BME280;35029;50.804;12.866;2022-08-21T01:02:58;97694.63;;;17.26;100.00
49194;BME280;35029;50.804;12.866;2022-08-21T01:05:25;97683.56;;;17.22;100.00
49194;BME280;35029;50.804;12.866;2022-08-21T01:07:50;97691.00;;;17.20;100.00
49194;BME280;35029;50.804;12.866;2022-08-21T01:10:17;97687.53;;;17.20;100.00
49194;BME280;35029;50.804;12.866;2022-08-21T01:12:43;97690.81;;;17.22;100.00
49194;BME280;35029;50.804;12.866;2022-08-21T01:15:09;97672.97;;;16.99;100.00
49194;BME280;35029;50.804;12.866;2022-08-21T01:17:36;97680.25;;;17.03;100.00
49194;BME280;35029;50.804;12.866;2022-08-21T01:20:06;97697.91;;;17.16;100.00
49194;BME280;35029;50.804;12.866;2022-08-21T01:22:32;97697.09;;;17.16;100.00
49194;BME280;35029;50.804;12.866;2022-08-21T01:24:58;97695.72;;;17.13;100.00
49194;BME280;35029;50.804;12.866;2022-08-21T01:27:23;97692.47;;;17.11;100.00
49194;BME280;35029;50.804;12.866;2022-08-21T01:29:57;97693.28;;;17.12;100.00
49194;BME280;35029;50.804;12.866;2022-08-21T01:32:25;97690.50;;;17.06;100.00
49194;BME280;35029;50.804;12.866;2022-08-21T01:34:52;97679.53;;;17.08;100.00
49194;BME280;35029;50.804;12.866;2022-08-21T01:37:20;97687.34;;;17.10;100.00
49194;BME280;35029;50.804;12.866;2022-08-21T01:39:47;97692.38;;;17.06;100.00
49194;BME280;35029;50.804;12.866;2022-08-21T01:42:13;97695.28;;;17.04;100.00
49194;BME280;35029;50.804;12.866;2022-08-21T01:44:40;97696.56;;;17.02;100.00
49194;BME280;35029;50.804;12.866;2022-08-21T01:47:08;97690.38;;;17.01;100.00
49194;BME280;35029;50.804;12.866;2022-08-21T01:49:35;97683.19;;;17.02;100.00
49194;BME280;35029;50.804;12.866;2022-08-21T01:52:02;97678.22;;;16.94;100.00
49194;BME280;35029;50.804;12.866;2022-08-21T01:54:29;97690.88;;;16.98;100.00
49194;BME280;35029;50.804;12.866;2022-08-21T01:56:55;97692.16;;;16.96;100.00
49194;BME280;35029;50.804;12.866;2022-08-21T01:59:23;97693.69;;;16.92;100.00
49194;BME280;35029;50.804;12.866;2022-08-21T02:01:49;97694.72;;;16.90;100.00
49194;BME280;35029;50.804;12.866;2022-08-21T02:04:15;97698.47;;;16.89;100.00
49194;BME280;35029;50.804;12.866;2022-08-21T02:06:41;97660.78;;;16.67;100.00
49194;BME280;35029;50.804;12.866;2022-08-21T02:09:09;97691.84;;;16.80;100.00
49194;BME280;35029;50.804;12.866;2022-08-21T02:11:35;97698.56;;;16.83;100.00
49194;BME280;35029;50.804;12.866;2022-08-21T02:14:01;97687.38;;;16.86;100.00
49194;BME280;35029;50.804;12.866;2022-08-21T02:16:27;97658.81;;;16.75;100.00
49194;BME280;35029;50.804;12.866;2022-08-21T02:18:53;97673.66;;;16.82;100.00
49194;BME280;35029;50.804;12.866;2022-08-21T02:21:19;97685.09;;;16.89;100.00
49194;BME280;35029;50.804;12.866;2022-08-21T02:23:45;97687.97;;;16.88;100.00
49194;BME280;35029;50.804;12.866;2022-08-21T02:26:11;97689.59;;;17.01;100.00
49194;BME280;35029;50.804;12.866;2022-08-21T02:28:37;97680.66;;;16.95;100.00
49194;BME280;35029;50.804;12.866;2022-08-21T02:31:04;97684.00;;;17.02;100.00
49194;BME280;35029;50.804;12.866;2022-08-21T02:33:30;97684.59;;;17.04;100.00
49194;BME280;35029;50.804;12.866;2022-08-21T02:35:56;97681.41;;;17.08;100.00
49194;BME280;35029;50.804;12.866;2022-08-21T02:38:26;97670.03;;;17.00;100.00
49194;BME280;35029;50.804;12.866;2022-08-21T02:40:54;97683.06;;;17.09;100.00
49194;BME280;35029;50.804;12.866;2022-08-21T02:43:21;97683.38;;;17.12;100.00
49194;BME280;35029;50.804;12.866;2022-08-21T02:45:48;97679.41;;;17.15;100.00
49194;BME280;35029;50.804;12.866;2022-08-21T02:48:18;97671.38;;;17.15;100.00
49194;BME280;35029;50.804;12.866;2022-08-21T02:50:52;97671.84;;;17.12;100.00
49194;BME280;35029;50.804;12.866;2022-08-21T02:53:18;97676.41;;;17.11;100.00
49194;BME280;35029;50.804;12.866;2022-08-21T02:55:46;97683.59;;;17.11;100.00
49194;BME280;35029;50.804;12.866;2022-08-21T02:58:14;97677.59;;;17.03;100.00
49194;BME280;35029;50.804;12.866;2022-08-21T03:00:41;97676.88;;;17.08;100.00
49194;BME280;35029;50.804;12.866;2022-08-21T03:03:07;97663.78;;;16.95;100.00
49194;BME280;35029;50.804;12.866;2022-08-21T03:05:34;97684.59;;;17.04;100.00
49194;BME280;35029;50.804;12.866;2022-08-21T03:08:02;97664.94;;;16.99;100.00
49194;BME280;35029;50.804;12.866;2022-08-21T03:10:29;97677.59;;;17.03;100.00
49194;BME280;35029;50.804;12.866;2022-08-21T03:12:56;97671.56;;;16.96;100.00
49194;BME280;35029;50.804;12.866;2022-08-21T03:15:23;97680.81;;;17.05;100.00
49194;BME280;35029;50.804;12.866;2022-08-21T03:17:51;97677.09;;;17.06;100.00
49194;BME280;35029;50.804;12.866;2022-08-21T03:20:22;97684.34;;;17.06;100.00
49194;BME280;35029;50.804;12.866;2022-08-21T03:22:48;97669.69;;;16.97;100.00
49194;BME280;35029;50.804;12.866;2022-08-21T03:25:13;97666.47;;;16.95;100.00
49194;BME280;35029;50.804;12.866;2022-08-21T03:27:39;97677.34;;;17.05;100.00
49194;BME280;35029;50.804;12.866;2022-08-21T03:30:06;97679.69;;;17.01;100.00
49194;BME280;35029;50.804;12.866;2022-08-21T03:32:32;97664.81;;;16.94;100.00
49194;BME280;35029;50.804;12.866;2022-08-21T03:34:58;97678.53;;;16.97;100.00
49194;BME280;35029;50.804;12.866;2022-08-21T03:37:23;97681.56;;;17.01;100.00
49194;BME280;35029;50.804;12.866;2022-08-21T03:39:50;97691.13;;;16.97;100.00
49194;BME280;35029;50.804;12.866;2022-08-21T03:42:16;97644.28;;;16.70;100.00
49194;BME280;35029;50.804;12.866;2022-08-21T03:44:41;97685.28;;;17.00;100.00
49194;BME280;35029;50.804;12.866;2022-08-21T03:47:07;97685.53;;;16.98;100.00
49194;BME280;35029;50.804;12.866;2022-08-21T03:49:32;97689.69;;;17.06;100.00
49194;BME280;35029;50.804;12.866;2022-08-21T03:51:59;97690.50;;;17.06;100.00
49194;BME280;35029;50.804;12.866;2022-08-21T03:54:25;97680.41;;;16.97;100.00
49194;BME280;35029;50.804;12.866;2022-08-21T03:56:51;97690.75;;;17.05;100.00
49194;BME280;35029;50.804;12.866;2022-08-21T03:59:17;97694.81;;;17.08;100.00
49194;BME280;35029;50.804;12.866;2022-08-21T04:01:57;97687.00;;;17.06;100.00
49194;BME280;35029;50.804;12.866;2022-08-21T04:04:25;97696.34;;;17.03;100.00
49194;BME280;35029;50.804;12.866;2022-08-21T04:06:51;97687.41;;;16.98;100.00
49194;BME280;35029;50.804;12.866;2022-08-21T04:09:18;97680.41;;;16.97;100.00
49194;BME280;35029;50.804;12.866;2022-08-21T04:11:44;97696.34;;;17.03;100.00
49194;BME280;35029;50.804;12.866;2022-08-21T04:14:10;97706.81;;;17.05;100.00
49194;BME280;35029;50.804;12.866;2022-08-21T04:16:36;97688.69;;;16.95;100.00
49194;BME280;35029;50.804;12.866;2022-08-21T04:19:01;97703.09;;;17.06;100.00
49194;BME280;35029;50.804;12.866;2022-08-21T04:21:27;97702.41;;;16.99;100.00
49194;BME280;35029;50.804;12.866;2022-08-21T04:23:55;97701.03;;;16.96;100.00
49194;BME280;35029;50.804;12.866;2022-08-21T04:26:21;97700.88;;;17.03;100.00
49194;BME280;35029;50.804;12.866;2022-08-21T04:28:46;97709.13;;;17.01;100.00
49194;BME280;35029;50.804;12.866;2022-08-21T04:31:12;97694.38;;;16.87;100.00
49194;BME280;35029;50.804;12.866;2022-08-21T04:33:38;97716.84;;;16.98;100.00
49194;BME280;35029;50.804;12.866;2022-08-21T04:36:04;97712.06;;;17.00;100.00
49194;BME280;35029;50.804;12.866;2022-08-21T04:38:30;97711.59;;;17.03;100.00
49194;BME280;35029;50.804;12.866;2022-08-21T04:40:56;97700.91;;;16.91;100.00
49194;BME280;35029;50.804;12.866;2022-08-21T04:43:22;97712.66;;;17.02;100.00
49194;BME280;35029;50.804;12.866;2022-08-21T04:45:49;97714.28;;;17.03;100.00
49194;BME280;35029;50.804;12.866;2022-08-21T04:48:18;97720.78;;;17.07;100.00
49194;BME280;35029;50.804;12.866;2022-08-21T04:50:57;97711.13;;;16.94;100.00
49194;BME280;35029;50.804;12.866;2022-08-21T04:55:54;97729.72;;;17.13;100.00
49194;BME280;35029;50.804;12.866;2022-08-21T04:58:24;97712.53;;;16.97;100.00
49194;BME280;35029;50.804;12.866;2022-08-21T05:00:54;97735.88;;;17.13;100.00
49194;BME280;35029;50.804;12.866;2022-08-21T05:03:19;97727.06;;;17.13;100.00
49194;BME280;35029;50.804;12.866;2022-08-21T05:05:46;97730.28;;;17.15;100.00
49194;BME280;35029;50.804;12.866;2022-08-21T05:08:16;97732.72;;;17.16;100.00
49194;BME280;35029;50.804;12.866;2022-08-21T05:10:42;97721.09;;;17.11;100.00
49194;BME280;35029;50.804;12.866;2022-08-21T05:13:10;97733.88;;;17.20;100.00
49194;BME280;35029;50.804;12.866;2022-08-21T05:15:38;97726.44;;;17.22;100.00
49194;BME280;35029;50.804;12.866;2022-08-21T05:18:05;97719.19;;;17.23;100.00
49194;BME280;35029;50.804;12.866;2022-08-21T05:20:32;97713.66;;;17.13;100.00
49194;BME280;35029;50.804;12.866;2022-08-21T05:22:59;97730.59;;;17.30;100.00
49194;BME280;35029;50.804;12.866;2022-08-21T05:25:25;97725.00;;;17.32;100.00
49194;BME280;35029;50.804;12.866;2022-08-21T05:27:52;97735.81;;;17.37;100.00
49194;BME280;35029;50.804;12.866;2022-08-21T05:30:19;97733.69;;;17.39;100.00
49194;BME280;35029;50.804;12.866;2022-08-21T05:32:46;97734.34;;;17.46;100.00
49194;BME280;35029;50.804;12.866;2022-08-21T05:35:12;97736.22;;;17.46;100.00
49194;BME280;35029;50.804;12.866;2022-08-21T05:37:39;97743.88;;;17.54;100.00
49194;BME280;35029;50.804;12.866;2022-08-21T05:40:05;97741.44;;;17.52;100.00
49194;BME280;35029;50.804;12.866;2022-08-21T05:42:32;97714.94;;;17.39;100.00
49194;BME280;35029;50.804;12.866;2022-08-21T05:44:57;97740.00;;;17.62;100.00
49194;BME280;35029;50.804;12.866;2022-08-21T05:47:23;97732.56;;;17.52;100.00
49194;BME280;35029;50.804;12.866;2022-08-21T05:49:48;97744.22;;;17.57;100.00
49194;BME280;35029;50.804;12.866;2022-08-21T05:52:19;97727.94;;;17.47;100.00
49194;BME280;35029;50.804;12.866;2022-08-21T05:54:45;97746.75;;;17.64;100.00
49194;BME280;35029;50.804;12.866;2022-08-21T05:57:10;97741.47;;;17.69;100.00
49194;BME280;35029;50.804;12.866;2022-08-21T05:59:36;97737.59;;;17.77;100.00
49194;BME280;35029;50.804;12.866;2022-08-21T06:02:02;97736.16;;;17.86;100.00
49194;BME280;35029;50.804;12.866;2022-08-21T06:04:27;97736.56;;;17.95;100.00
49194;BME280;35029;50.804;12.866;2022-08-21T06:06:53;97731.31;;;18.00;100.00
49194;BME280;35029;50.804;12.866;2022-08-21T06:09:18;97728.41;;;17.90;100.00
49194;BME280;35029;50.804;12.866;2022-08-21T06:11:44;97718.31;;;17.80;100.00
49194;BME280;35029;50.804;12.866;2022-08-21T06:14:10;97733.34;;;17.93;100.00
49194;BME280;35029;50.804;12.866;2022-08-21T06:16:35;97733.19;;;18.00;100.00
49194;BME280;35029;50.804;12.866;2022-08-21T06:19:01;97725.13;;;18.00;100.00
49194;BME280;35029;50.804;12.866;2022-08-21T06:21:26;97734.63;;;18.07;100.00
49194;BME280;35029;50.804;12.866;2022-08-21T06:23:52;97741.22;;;18.17;100.00
49194;BME280;35029;50.804;12.866;2022-08-21T06:26:17;97724.97;;;18.06;100.00
49194;BME280;35029;50.804;12.866;2022-08-21T06:28:43;97737.16;;;18.14;100.00
49194;BME280;35029;50.804;12.866;2022-08-21T06:31:18;97742.25;;;18.16;100.00
49194;BME280;35029;50.804;12.866;2022-08-21T06:33:44;97742.19;;;18.11;100.00
49194;BME280;35029;50.804;12.866;2022-08-21T06:36:10;97732.69;;;18.03;100.00
49194;BME280;35029;50.804;12.866;2022-08-21T06:38:37;97740.81;;;18.08;100.00
49194;BME280;35029;50.804;12.866;2022-08-21T06:41:03;97743.00;;;18.11;100.00
49194;BME280;35029;50.804;12.866;2022-08-21T06:43:30;97739.53;;;18.11;100.00
49194;BME280;35029;50.804;12.866;2022-08-21T06:45:56;97746.75;;;18.10;100.00
49194;BME280;35029;50.804;12.866;2022-08-21T06:48:21;97746.44;;;18.06;100.00
49194;BME280;35029;50.804;12.866;2022-08-21T06:50:47;97744.88;;;18.11;100.00
49194;BME280;35029;50.804;12.866;2022-08-21T06:53:15;97724.63;;;18.03;100.00
49194;BME280;35029;50.804;12.866;2022-08-21T06:55:42;97744.69;;;18.17;100.00
49194;BME280;35029;50.804;12.866;2022-08-21T06:58:08;97723.34;;;18.05;100.00
49194;BME280;35029;50.804;12.866;2022-08-21T07:00:35;97733.66;;;18.14;100.00
49194;BME280;35029;50.804;12.866;2022-08-21T07:03:04;97726.56;;;18.07;100.00
49194;BME280;35029;50.804;12.866;2022-08-21T07:05:30;97720.16;;;18.08;100.00
49194;BME280;35029;50.804;12.866;2022-08-21T07:07:56;97739.13;;;18.19;100.00
49194;BME280;35029;50.804;12.866;2022-08-21T07:10:23;97740.41;;;18.16;100.00
49194;BME280;35029;50.804;12.866;2022-08-21T07:12:50;97739.13;;;18.19;100.00
49194;BME280;35029;50.804;12.866;2022-08-21T07:15:15;97742.00;;;18.17;100.00
49194;BME280;35029;50.804;12.866;2022-08-21T07:17:41;97734.72;;;18.13;100.00
49194;BME280;35029;50.804;12.866;2022-08-21T07:20:07;97747.47;;;18.22;100.00
49194;BME280;35029;50.804;12.866;2022-08-21T07:22:34;97750.63;;;18.36;100.00
49194;BME280;35029;50.804;12.866;2022-08-21T07:25:00;97744.19;;;18.37;100.00
49194;BME280;35029;50.804;12.866;2022-08-21T07:27:26;97748.84;;;18.42;100.00
49194;BME280;35029;50.804;12.866;2022-08-21T07:29:52;97746.00;;;18.49;100.00
49194;BME280;35029;50.804;12.866;2022-08-21T07:32:17;97753.63;;;18.57;100.00
49194;BME280;35029;50.804;12.866;2022-08-21T07:34:43;97722.03;;;18.25;100.00
49194;BME280;35029;50.804;12.866;2022-08-21T07:37:09;97754.94;;;18.37;100.00
49194;BME280;35029;50.804;12.866;2022-08-21T07:39:35;97756.06;;;18.41;100.00
49194;BME280;35029;50.804;12.866;2022-08-21T07:42:02;97757.63;;;18.37;100.00
49194;BME280;35029;50.804;12.866;2022-08-21T07:44:29;97757.06;;;18.35;100.00
49194;BME280;35029;50.804;12.866;2022-08-21T07:46:54;97748.94;;;18.30;100.00
49194;BME280;35029;50.804;12.866;2022-08-21T07:49:19;97741.13;;;18.29;100.00
49194;BME280;35029;50.804;12.866;2022-08-21T07:51:45;97755.97;;;18.36;100.00
49194;BME280;35029;50.804;12.866;2022-08-21T07:54:10;97747.63;;;18.33;100.00
49194;BME280;35029;50.804;12.866;2022-08-21T07:56:36;97756.94;;;18.47;100.00
49194;BME280;35029;50.804;12.866;2022-08-21T07:59:02;97742.97;;;18.45;99.50
49194;BME280;35029;50.804;12.866;2022-08-21T08:01:28;97751.91;;;18.51;99.07
49194;BME280;35029;50.804;12.866;2022-08-21T08:03:54;97738.91;;;18.42;98.49
49194;BME280;35029;50.804;12.866;2022-08-21T08:06:20;97741.78;;;18.36;97.94
49194;BME280;35029;50.804;12.866;2022-08-21T08:08:46;97757.19;;;18.46;99.45
49194;BME280;35029;50.804;12.866;2022-08-21T08:11:12;97754.22;;;18.42;100.00
49194;BME280;35029;50.804;12.866;2022-08-21T08:13:48;97756.16;;;18.47;100.00
49194;BME280;35029;50.804;12.866;2022-08-21T08:16:15;97752.50;;;18.53;100.00
49194;BME280;35029;50.804;12.866;2022-08-21T08:18:41;97752.88;;;18.62;100.00
49194;BME280;35029;50.804;12.866;2022-08-21T08:21:08;97753.22;;;18.48;98.98
49194;BME280;35029;50.804;12.866;2022-08-21T08:23:34;97737.13;;;18.48;99.17
49194;BME280;35029;50.804;12.866;2022-08-21T08:26:00;97755.94;;;18.70;98.02
49194;BME280;35029;50.804;12.866;2022-08-21T08:28:28;97750.97;;;18.79;96.82
49194;BME280;35029;50.804;12.866;2022-08-21T08:30:53;97755.22;;;18.75;95.68
49194;BME280;35029;50.804;12.866;2022-08-21T08:33:19;97757.75;;;18.87;96.92
49194;BME280;35029;50.804;12.866;2022-08-21T08:35:46;97753.22;;;18.87;95.12
49194;BME280;35029;50.804;12.866;2022-08-21T08:38:13;97751.25;;;19.00;94.55
49194;BME280;35029;50.804;12.866;2022-08-21T08:40:45;97762.75;;;19.17;95.66
49194;BME280;35029;50.804;12.866;2022-08-21T08:43:13;97766.81;;;19.20;94.49
49194;BME280;35029;50.804;12.866;2022-08-21T08:45:42;97760.75;;;19.30;93.15
49194;BME280;35029;50.804;12.866;2022-08-21T08:48:12;97768.91;;;19.40;93.17
49194;BME280;35029;50.804;12.866;2022-08-21T08:50:56;97763.41;;;19.52;92.16
49194;BME280;35029;50.804;12.866;2022-08-21T08:53:28;97761.09;;;19.61;91.96
49194;BME280;35029;50.804;12.866;2022-08-21T08:55:55;97768.84;;;19.57;89.67
49194;BME280;35029;50.804;12.866;2022-08-21T08:58:26;97771.00;;;19.60;90.47
49194;BME280;35029;50.804;12.866;2022-08-21T09:00:56;97764.31;;;19.63;91.37
49194;BME280;35029;50.804;12.866;2022-08-21T09:03:26;97769.19;;;19.66;91.86
49194;BME280;35029;50.804;12.866;2022-08-21T09:06:09;97771.31;;;19.64;91.03
49194;BME280;35029;50.804;12.866;2022-08-21T09:08:59;97761.28;;;19.54;88.60
49194;BME280;35029;50.804;12.866;2022-08-21T09:11:44;97768.03;;;19.34;89.95
49194;BME280;35029;50.804;12.866;2022-08-21T09:17:14;97777.75;;;19.35;91.21
49194;BME280;35029;50.804;12.866;2022-08-21T09:22:43;97764.66;;;19.44;87.88
49194;BME280;35029;50.804;12.866;2022-08-21T09:25:22;97760.56;;;19.64;86.31
49194;BME280;35029;50.804;12.866;2022-08-21T09:27:49;97764.22;;;20.07;84.23
49194;BME280;35029;50.804;12.866;2022-08-21T09:30:16;97767.41;;;20.36;82.70
49194;BME280;35029;50.804;12.866;2022-08-21T09:32:42;97754.72;;;20.69;80.91
49194;BME280;35029;50.804;12.866;2022-08-21T09:35:12;97762.66;;;20.91;79.46
49194;BME280;35029;50.804;12.866;2022-08-21T09:38:23;97747.69;;;21.26;79.60
49194;BME280;35029;50.804;12.866;2022-08-21T09:40:54;97757.13;;;21.29;74.92
49194;BME280;35029;50.804;12.866;2022-08-21T09:43:23;97753.09;;;21.26;73.12
49194;BME280;35029;50.804;12.866;2022-08-21T09:46:20;97752.69;;;20.92;74.97
49194;BME280;35029;50.804;12.866;2022-08-21T09:48:49;97753.47;;;20.44;73.90
49194;BME280;35029;50.804;12.866;2022-08-21T09:51:19;97742.75;;;20.55;77.76
49194;BME280;35029;50.804;12.866;2022-08-21T09:53:58;97753.75;;;20.48;77.13
49194;BME280;35029;50.804;12.866;2022-08-21T09:56:32;97746.72;;;20.42;79.34
49194;BME280;35029;50.804;12.866;2022-08-21T10:01:49;97742.19;;;21.01;71.97
49194;BME280;35029;50.804;12.866;2022-08-21T10:04:19;97739.59;;;21.16;69.00
49194;BME280;35029;50.804;12.866;2022-08-21T10:06:45;97731.69;;;20.99;70.47
49194;BME280;35029;50.804;12.866;2022-08-21T10:09:14;97744.00;;;20.80;70.44
49194;BME280;35029;50.804;12.866;2022-08-21T10:11:58;97737.31;;;20.92;68.91
49194;BME280;35029;50.804;12.866;2022-08-21T10:19:59;97731.84;;;21.45;65.54
49194;BME280;35029;50.804;12.866;2022-08-21T10:30:13;97724.16;;;23.07;58.76
49194;BME280;35029;50.804;12.866;2022-08-21T10:35:37;97743.81;;;22.48;58.58
49194;BME280;35029;50.804;12.866;2022-08-21T10:47:03;97741.09;;;21.96;61.11
49194;BME280;35029;50.804;12.866;2022-08-21T10:50:10;97744.88;;;22.21;57.98
49194;BME280;35029;50.804;12.866;2022-08-21T10:55:20;97734.06;;;21.80;58.06
49194;BME280;35029;50.804;12.866;2022-08-21T10:57:59;97738.66;;;21.89;63.08
49194;BME280;35029;50.804;12.866;2022-08-21T11:03:11;97727.97;;;23.01;55.61
49194;BME280;35029;50.804;12.866;2022-08-21T11:06:05;97734.50;;;22.85;57.93
49194;BME280;35029;50.804;12.866;2022-08-21T11:08:39;97726.94;;;22.87;58.62
49194;BME280;35029;50.804;12.866;2022-08-21T11:11:15;97730.50;;;23.42;57.44
49194;BME280;35029;50.804;12.866;2022-08-21T11:13:57;97721.84;;;23.40;56.77
49194;BME280;35029;50.804;12.866;2022-08-21T11:19:15;97729.63;;;23.57;50.38
49194;BME280;35029;50.804;12.866;2022-08-21T11:21:48;97727.94;;;23.06;53.01
49194;BME280;35029;50.804;12.866;2022-08-21T11:27:09;97717.81;;;23.38;51.10
49194;BME280;35029;50.804;12.866;2022-08-21T11:29:39;97723.88;;;23.19;51.21
49194;BME280;35029;50.804;12.866;2022-08-21T11:35:07;97727.44;;;22.99;54.07
49194;BME280;35029;50.804;12.866;2022-08-21T11:48:45;97707.84;;;24.12;48.62
49194;BME280;35029;50.804;12.866;2022-08-21T11:51:24;97708.47;;;23.99;49.70
49194;BME280;35029;50.804;12.866;2022-08-21T11:54:28;97716.13;;;23.92;50.40
49194;BME280;35029;50.804;12.866;2022-08-21T11:56:58;97699.78;;;23.18;51.27
49194;BME280;35029;50.804;12.866;2022-08-21T11:59:40;97714.03;;;22.68;53.04
49194;BME280;35029;50.804;12.866;2022-08-21T12:02:13;97710.84;;;22.51;55.59
49194;BME280;35029;50.804;12.866;2022-08-21T12:04:52;97703.22;;;22.78;54.21
49194;BME280;35029;50.804;12.866;2022-08-21T12:07:39;97713.84;;;23.25;51.44
49194;BME280;35029;50.804;12.866;2022-08-21T12:10:11;97697.66;;;23.15;50.53
49194;BME280;35029;50.804;12.866;2022-08-21T12:12:40;97713.91;;;23.04;50.42
49194;BME280;35029;50.804;12.866;2022-08-21T12:17:39;97708.91;;;23.77;49.87
49194;BME280;35029;50.804;12.866;2022-08-21T12:20:33;97707.88;;;24.07;50.02
49194;BME280;35029;50.804;12.866;2022-08-21T12:25:42;97700.59;;;24.32;48.60
49194;BME280;35029;50.804;12.866;2022-08-21T12:28:12;97707.22;;;23.86;48.11
49194;BME280;35029;50.804;12.866;2022-08-21T12:30:41;97708.22;;;23.56;49.51
49194;BME280;35029;50.804;12.866;2022-08-21T12:33:27;97707.28;;;23.36;49.36
49194;BME280;35029;50.804;12.866;2022-08-21T12:36:05;97685.34;;;23.43;52.33
49194;BME280;35029;50.804;12.866;2022-08-21T12:38:45;97705.31;;;23.92;49.79
49194;BME280;35029;50.804;12.866;2022-08-21T12:41:34;97691.84;;;24.16;48.97
49194;BME280;35029;50.804;12.866;2022-08-21T12:44:12;97689.75;;;24.32;50.21
49194;BME280;35029;50.804;12.866;2022-08-21T12:46:45;97699.28;;;24.83;48.51
49194;BME280;35029;50.804;12.866;2022-08-21T12:49:15;97689.44;;;25.30;46.21
49194;BME280;35029;50.804;12.866;2022-08-21T12:51:57;97685.28;;;25.38;44.07
49194;BME280;35029;50.804;12.866;2022-08-21T12:54:30;97695.97;;;25.29;47.17
49194;BME280;35029;50.804;12.866;2022-08-21T12:57:02;97681.44;;;25.20;45.51
49194;BME280;35029;50.804;12.866;2022-08-21T12:59:30;97675.72;;;25.60;44.16
49194;BME280;35029;50.804;12.866;2022-08-21T13:01:58;97679.75;;;25.81;43.28
49194;BME280;35029;50.804;12.866;2022-08-21T13:04:38;97678.78;;;25.72;43.50
49194;BME280;35029;50.804;12.866;2022-08-21T13:07:07;97670.66;;;25.15;43.09
49194;BME280;35029;50.804;12.866;2022-08-21T13:09:36;97683.09;;;25.40;43.90
49194;BME280;35029;50.804;12.866;2022-08-21T13:12:07;97670.72;;;25.67;43.36
49194;BME280;35029;50.804;12.866;2022-08-21T13:14:39;97674.44;;;25.38;44.38
49194;BME280;35029;50.804;12.866;2022-08-21T13:17:07;97685.25;;;24.52;47.27
49194;BME280;35029;50.804;12.866;2022-08-21T13:19:33;97688.53;;;23.90;50.85
49194;BME280;35029;50.804;12.866;2022-08-21T13:22:01;97684.09;;;23.65;49.84
49194;BME280;35029;50.804;12.866;2022-08-21T13:24:29;97675.22;;;23.59;50.42
49194;BME280;35029;50.804;12.866;2022-08-21T13:26:56;97673.50;;;23.28;49.25
49194;BME280;35029;50.804;12.866;2022-08-21T13:29:28;97683.47;;;23.78;49.56
49194;BME280;35029;50.804;12.866;2022-08-21T13:32:04;97686.22;;;24.37;45.85
49194;BME280;35029;50.804;12.866;2022-08-21T13:34:36;97684.59;;;24.36;46.22
49194;BME280;35029;50.804;12.866;2022-08-21T13:37:06;97690.91;;;23.96;46.40
49194;BME280;35029;50.804;12.866;2022-08-21T13:39:33;97691.22;;;24.24;46.93
49194;BME280;35029;50.804;12.866;2022-08-21T13:42:02;97674.78;;;24.40;46.55
49194;BME280;35029;50.804;12.866;2022-08-21T13:44:43;97680.50;;;24.38;48.79
49194;BME280;35029;50.804;12.866;2022-08-21T13:47:11;97680.41;;;23.90;50.35
49194;BME280;35029;50.804;12.866;2022-08-21T13:49:42;97678.78;;;23.49;49.63
49194;BME280;35029;50.804;12.866;2022-08-21T13:52:21;97691.69;;;23.18;52.02
49194;BME280;35029;50.804;12.866;2022-08-21T13:55:00;97685.78;;;23.05;52.59
49194;BME280;35029;50.804;12.866;2022-08-21T13:57:33;97680.41;;;23.90;51.48
49194;BME280;35029;50.804;12.866;2022-08-21T14:00:25;97683.94;;;24.73;46.91